Time;durP1;ratioP1;P1;durP2;ratioP2;P2;SDS_P1;SDS_P2;PMS_P1;PMS_P2;Temp;Humidity;BMP_temperature;BMP_pressure;BME280_temperature;BME280_humidity;BME280_pressure;Samples;Min_cycle;Max_cycle;Signal;HPM_P1;HPM_P2
2022/03/21 00:01:59;;;;;;;3.37;2.47;;;;;;;1.29;37.31;102205.56;4413835;32;35708;-78
2022/03/21 00:04:27;;;;;;;4.15;2.47;;;;;;;1.38;37.17;102199.28;4427757;32;35038;-78
2022/03/21 00:06:54;;;;;;;3.15;2.78;;;;;;;1.08;37.74;102198.09;4401323;32;32765;-78
2022/03/21 00:09:22;;;;;;;6.53;3.65;;;;;;;0.80;38.31;102196.84;4388698;32;33308;-78
2022/03/21 00:11:50;;;;;;;;;;;;;;;1.10;37.77;102200.66;4428160;32;34637;-78
2022/03/21 00:14:17;;;;;;;4.97;4.05;;;;;;;1.29;36.96;102187.22;4413439;32;34656;-78
2022/03/21 00:16:46;;;;;;;5.65;3.58;;;;;;;1.31;36.70;102193.28;4413789;32;33873;-78
2022/03/21 00:19:13;;;;;;;6.05;3.03;;;;;;;1.11;37.36;102198.03;4415890;32;33290;-78
2022/03/21 00:21:41;;;;;;;4.72;2.72;;;;;;;1.20;37.04;102203.13;4403041;32;33070;-78
2022/03/21 00:24:08;;;;;;;2.42;2.22;;;;;;;1.05;37.83;102200.75;4415452;32;34345;-78
2022/03/21 00:26:36;;;;;;;10.50;3.70;;;;;;;0.59;38.44;102199.78;4402925;32;32095;-78
2022/03/21 00:29:08;;;;;;;9.88;3.80;;;;;;;0.63;38.50;102205.84;4430069;32;34085;-78
2022/03/21 00:31:37;;;;;;;6.55;2.67;;;;;;;0.79;38.68;102196.84;4416164;32;35535;-78
2022/03/21 00:34:05;;;;;;;8.73;3.92;;;;;;;0.87;38.62;102197.59;4415976;32;34895;-77
2022/03/21 00:36:33;;;;;;;6.07;3.42;;;;;;;1.07;37.63;102196.37;4430218;32;32907;-78
2022/03/21 00:39:15;;;;;;;6.05;3.12;;;;;;;1.15;37.28;102196.22;4417298;32;34089;-79
2022/03/21 00:41:43;;;;;;;5.37;2.72;;;;;;;1.25;37.03;102187.31;4414777;32;34817;-77
2022/03/21 00:44:11;;;;;;;4.70;3.65;;;;;;;0.86;38.02;102183.63;4415843;32;32931;-78
2022/03/21 00:46:39;;;;;;;4.55;2.67;;;;;;;1.00;37.68;102189.50;4402876;32;33507;-78
2022/03/21 00:49:11;;;;;;;8.65;3.30;;;;;;;1.05;37.49;102185.03;4403390;32;33176;-77
2022/03/21 00:51:40;;;;;;;3.60;2.33;;;;;;;0.85;37.96;102191.53;4429856;32;35727;-79
2022/03/21 00:54:07;;;;;;;;;;;;;;;0.58;38.43;102187.59;4416166;32;33959;-78
2022/03/21 00:56:35;;;;;;;5.97;2.42;;;;;;;0.77;38.27;102182.94;4415590;32;33226;-77
2022/03/21 00:59:03;;;;;;;7.82;3.53;;;;;;;0.74;38.59;102181.22;4429902;32;33531;-77
2022/03/21 01:01:30;;;;;;;;;;;;;;;0.60;38.60;102182.31;4430142;32;36014;-78
2022/03/21 01:03:58;;;;;;;2.67;2.42;;;;;;;0.65;38.56;102183.09;4414559;32;35786;-77
2022/03/21 01:06:26;;;;;;;6.70;3.03;;;;;;;0.67;38.39;102174.34;4402217;32;33353;-77
2022/03/21 01:08:53;;;;;;;5.03;4.45;;;;;;;0.73;38.26;102179.50;4402103;32;33041;-78
2022/03/21 01:11:22;;;;;;;6.78;2.87;;;;;;;0.71;38.36;102183.91;4429587;32;35557;-78
2022/03/21 01:13:50;;;;;;;4.05;2.95;;;;;;;0.91;37.78;102175.69;4415728;32;35005;-78
2022/03/21 01:16:18;;;;;;;3.47;2.95;;;;;;;0.93;38.02;102173.88;4415241;32;32174;-77
2022/03/21 01:18:46;;;;;;;4.37;2.78;;;;;;;0.87;37.96;102177.47;4415308;32;34662;-78
2022/03/21 01:21:14;;;;;;;;;;;;;;;0.93;37.61;102176.50;4429995;32;34192;-77
2022/03/21 01:23:41;;;;;;;4.05;2.30;;;;;;;0.57;38.80;102179.78;4411961;32;33794;-78
2022/03/21 01:26:09;;;;;;;6.45;3.12;;;;;;;0.78;38.33;102175.03;4415212;32;33130;-77
2022/03/21 01:28:37;;;;;;;8.18;2.97;;;;;;;0.69;38.43;102177.78;4429565;32;34310;-77
2022/03/21 01:31:04;;;;;;;8.73;3.33;;;;;;;0.38;38.98;102179.16;4415680;32;35356;-78
2022/03/21 01:33:35;;;;;;;5.85;3.00;;;;;;;0.59;38.78;102178.81;4402785;32;33884;-77
2022/03/21 01:36:03;;;;;;;6.90;2.95;;;;;;;0.78;38.21;102171.56;4415838;32;34142;-78
2022/03/21 01:38:30;;;;;;;5.90;2.80;;;;;;;0.70;38.21;102174.31;4415246;32;33903;-78
2022/03/21 01:40:58;;;;;;;3.12;2.33;;;;;;;0.55;38.47;102171.03;4429362;32;35786;-77
2022/03/21 01:43:25;;;;;;;2.37;2.17;;;;;;;0.68;38.27;102170.81;4415470;32;33750;-79
2022/03/21 01:45:53;;;;;;;4.43;1.87;;;;;;;0.55;38.35;102171.03;4411301;32;31905;-78
2022/03/21 01:48:20;;;;;;;4.97;3.33;;;;;;;0.39;39.20;102167.81;4402676;32;34091;-79
2022/03/21 01:50:48;;;;;;;6.53;2.83;;;;;;;0.47;38.92;102170.34;4429101;32;35700;-78
2022/03/21 01:56:02;;;;;;;15.23;2.53;;;;;;;0.70;38.18;102171.69;4404470;32;31698;-78
2022/03/21 01:58:30;;;;;;;4.35;3.00;;;;;;;0.68;38.17;102168.22;4401979;32;34138;-77
2022/03/21 02:00:57;;;;;;;4.57;2.85;;;;;;;0.32;39.18;102162.69;4402323;32;34445;-78
2022/03/21 02:03:25;;;;;;;;;;;;;;;0.54;38.79;102161.47;4403064;32;34438;-78
2022/03/21 02:05:53;;;;;;;4.80;2.28;;;;;;;0.60;38.42;102166.63;4415182;32;32927;-78
2022/03/21 02:08:21;;;;;;;6.72;2.72;;;;;;;0.45;38.94;102157.25;4429474;32;35285;-78
2022/03/21 02:10:50;;;;;;;5.53;2.33;;;;;;;0.72;38.27;102156.81;4402231;32;35862;-78
2022/03/21 02:13:18;;;;;;;4.78;1.67;;;;;;;0.76;38.22;102153.22;4402865;32;33769;-77
2022/03/21 02:15:46;;;;;;;2.65;2.35;;;;;;;0.30;39.54;102159.25;4402319;32;34106;-78
2022/03/21 02:18:15;;;;;;;6.97;3.65;;;;;;;0.43;39.07;102155.53;4415228;32;34078;-78
2022/03/21 02:20:43;;;;;;;2.92;2.22;;;;;;;0.40;39.12;102150.34;4402449;32;34383;-78
2022/03/21 02:23:16;;;;;;;4.40;2.30;;;;;;;0.27;39.44;102147.06;4428848;32;35703;-78
2022/03/21 02:25:45;;;;;;;4.15;2.42;;;;;;;0.51;38.84;102149.31;4402681;32;33964;-78
2022/03/21 02:28:14;;;;;;;5.55;2.40;;;;;;;0.22;39.61;102151.47;4402170;32;32591;-78
2022/03/21 02:30:45;;;;;;;3.62;2.05;;;;;;;0.12;40.29;102151.66;4429048;32;35909;-78
2022/03/21 02:33:15;;;;;;;4.07;3.60;;;;;;;0.22;39.80;102148.87;4429003;32;34408;-78
2022/03/21 02:35:45;;;;;;;4.70;2.62;;;;;;;0.31;39.62;102156.59;4400874;32;31537;-77
2022/03/21 02:38:13;;;;;;;6.12;2.33;;;;;;;0.08;40.02;102150.84;4429012;32;32707;-78
2022/03/21 02:40:41;;;;;;;4.03;2.28;;;;;;;0.31;39.50;102146.13;4401022;32;33462;-78
2022/03/21 02:43:08;;;;;;;4.78;2.92;;;;;;;0.57;38.54;102146.56;4414786;32;34710;-78
2022/03/21 02:45:36;;;;;;;3.17;2.45;;;;;;;0.39;39.21;102144.25;4415103;32;33341;-78
2022/03/21 02:48:04;;;;;;;3.97;2.65;;;;;;;0.02;40.25;102145.69;4389487;32;33263;-79
2022/03/21 02:50:40;;;;;;;3.17;2.22;;;;;;;0.36;39.53;102141.69;4401856;32;33421;-78
2022/03/21 02:53:09;;;;;;;6.18;3.83;;;;;;;-0.11;40.22;102145.03;4389657;32;32518;-78
2022/03/21 02:55:41;;;;;;;4.25;2.85;;;;;;;0.05;39.92;102143.03;4401929;32;32024;-78
2022/03/21 02:58:09;;;;;;;4.62;3.15;;;;;;;0.16;39.64;102148.09;4415190;32;33238;-78
2022/03/21 03:00:36;;;;;;;3.87;3.42;;;;;;;0.14;39.69;102150.75;4428972;32;35657;-78
2022/03/21 03:03:04;;;;;;;3.53;2.17;;;;;;;-0.14;40.32;102145.94;4428649;32;33971;-78
2022/03/21 03:05:32;;;;;;;4.37;3.10;;;;;;;0.03;40.25;102138.72;4415107;32;32939;-78
2022/03/21 03:07:59;;;;;;;8.07;3.33;;;;;;;0.10;39.77;102140.34;4428716;32;33321;-78
2022/03/21 03:10:30;;;;;;;15.77;3.70;;;;;;;0.27;39.66;102146.19;4428256;32;34736;-78
2022/03/21 03:12:58;;;;;;;6.93;3.50;;;;;;;0.13;39.85;102143.78;4395280;32;32665;-78
2022/03/21 03:15:26;;;;;;;9.52;3.70;;;;;;;0.16;39.48;102146.38;4410862;32;33809;-79
2022/03/21 03:17:53;;;;;;;5.75;3.37;;;;;;;0.33;39.44;102140.88;4401745;32;31914;-78
2022/03/21 03:20:21;;;;;;;7.93;3.22;;;;;;;0.23;39.44;102144.50;4414323;32;35419;-78
2022/03/21 03:22:49;;;;;;;7.25;3.72;;;;;;;0.26;39.63;102141.84;4414114;32;34508;-77
2022/03/21 03:25:16;;;;;;;5.97;3.62;;;;;;;0.16;39.72;102141.13;4414271;32;34087;-78
2022/03/21 03:27:44;;;;;;;4.68;1.92;;;;;;;0.23;39.47;102142.78;4414632;32;34312;-78
2022/03/21 03:30:12;;;;;;;3.58;2.83;;;;;;;-0.13;40.77;102137.19;4428096;32;35202;-78
2022/03/21 03:32:40;;;;;;;8.52;4.10;;;;;;;0.02;40.05;102139.59;4423075;32;34727;-78
2022/03/21 03:35:08;;;;;;;;;;;;;;;0.08;40.28;102150.84;4414406;32;34300;-78
2022/03/21 03:37:36;;;;;;;;;;;;;;;0.22;39.57;102142.78;4414909;32;33572;-78
2022/03/21 03:40:04;;;;;;;5.00;3.53;;;;;;;0.38;39.13;102144.28;4401431;32;34275;-78
2022/03/21 03:42:31;;;;;;;5.53;2.80;;;;;;;0.12;39.48;102147.28;4427819;32;34656;-78
2022/03/21 03:44:59;;;;;;;3.83;2.70;;;;;;;0.28;39.50;102150.56;4401362;32;32904;-78
2022/03/21 03:47:26;;;;;;;4.20;2.30;;;;;;;0.36;39.17;102156.50;4427916;32;34190;-78
2022/03/21 03:49:54;;;;;;;5.75;3.03;;;;;;;0.32;39.14;102153.06;4428055;32;34513;-78
2022/03/21 03:52:21;;;;;;;4.55;3.35;;;;;;;0.35;39.08;102157.41;4428626;32;33881;-78
2022/03/21 03:54:49;;;;;;;4.90;4.35;;;;;;;0.08;40.08;102157.81;4416042;32;33555;-78
2022/03/21 03:57:16;;;;;;;8.55;3.42;;;;;;;0.19;39.80;102158.53;4415720;32;34074;-78
2022/03/21 03:59:44;;;;;;;3.55;3.10;;;;;;;0.25;39.72;102154.09;4430287;32;35424;-78
2022/03/21 04:02:12;;;;;;;8.73;3.37;;;;;;;0.23;39.72;102162.84;4415950;32;34918;-78
2022/03/21 04:04:40;;;;;;;4.53;2.50;;;;;;;0.28;39.66;102164.50;4416371;32;33869;-78
2022/03/21 04:07:07;;;;;;;4.55;3.03;;;;;;;0.27;39.68;102159.28;4403161;32;32278;-78
2022/03/21 04:09:34;;;;;;;7.55;3.80;;;;;;;0.29;39.62;102165.37;4430192;32;35688;-78
2022/03/21 04:12:03;;;;;;;4.93;3.08;;;;;;;0.27;39.65;102154.03;4415768;32;34804;-79
2022/03/21 04:14:31;;;;;;;7.20;2.87;;;;;;;0.32;39.43;102155.69;4415948;32;33916;-78
2022/03/21 04:16:58;;;;;;;7.07;2.25;;;;;;;0.29;39.78;102160.13;4403091;32;33806;-78
2022/03/21 04:19:27;;;;;;;6.70;3.37;;;;;;;0.22;39.90;102150.62;4429447;32;34797;-78
2022/03/21 04:21:54;;;;;;;3.35;2.20;;;;;;;0.16;39.86;102155.94;4416219;32;35058;-78
2022/03/21 04:24:21;;;;;;;3.87;3.33;;;;;;;0.27;39.54;102159.28;4403239;32;33414;-78
2022/03/21 04:26:49;;;;;;;4.60;3.25;;;;;;;0.32;39.57;102165.31;4430510;32;33364;-78
2022/03/21 04:29:17;;;;;;;3.87;2.53;;;;;;;0.27;39.66;102162.78;4415962;32;34595;-78
2022/03/21 04:31:44;;;;;;;7.22;4.40;;;;;;;0.30;39.64;102159.25;4416025;32;34440;-79
2022/03/21 04:34:12;;;;;;;5.00;2.40;;;;;;;0.34;39.34;102159.19;4403782;32;33605;-78
2022/03/21 04:36:42;;;;;;;9.10;3.70;;;;;;;0.22;39.51;102159.34;4429699;32;34038;-78
2022/03/21 04:39:10;;;;;;;4.10;3.50;;;;;;;0.03;40.10;102163.09;4429513;32;36389;-78
2022/03/21 04:41:38;;;;;;;6.15;2.85;;;;;;;0.06;39.96;102159.59;4415101;32;34411;-79
2022/03/21 04:44:05;;;;;;;5.22;3.72;;;;;;;0.22;39.74;102164.56;4430238;32;32690;-78
2022/03/21 04:46:33;;;;;;;6.37;3.00;;;;;;;-0.14;40.53;102165.97;4415553;32;33172;-78
2022/03/21 04:49:01;;;;;;;9.90;4.15;;;;;;;-0.33;41.40;102174.94;4415553;32;33871;-78
2022/03/21 04:51:28;;;;;;;6.68;3.28;;;;;;;0.02;40.37;102166.63;4402961;32;34082;-78
2022/03/21 04:53:56;;;;;;;3.72;2.72;;;;;;;-0.02;40.42;102164.06;4415885;32;32983;-78
2022/03/21 04:56:24;;;;;;;9.55;2.97;;;;;;;0.04;40.15;102169.22;4428124;32;33540;-78
2022/03/21 04:58:51;;;;;;;4.95;2.60;;;;;;;-0.11;41.07;102174.66;4429098;32;35109;-78
2022/03/21 05:01:20;;;;;;;5.60;2.40;;;;;;;-0.01;40.58;102173.63;4401108;32;32428;-77
2022/03/21 05:03:48;;;;;;;4.40;2.50;;;;;;;-0.08;40.35;102176.37;4415208;32;32941;-79
2022/03/21 05:06:16;;;;;;;6.22;2.78;;;;;;;0.05;40.34;102176.19;4402888;32;33349;-79
2022/03/21 05:08:44;;;;;;;5.62;2.65;;;;;;;0.08;40.38;102174.38;4414712;32;35692;-79
2022/03/21 05:11:12;;;;;;;;;;;;;;;0.14;39.96;102182.16;4415476;32;34303;-79
2022/03/21 05:13:39;;;;;;;4.07;2.90;;;;;;;0.20;39.79;102181.22;4402781;32;33914;-78
2022/03/21 05:16:07;;;;;;;5.53;2.90;;;;;;;0.06;40.35;102178.78;4415439;32;32093;-78
2022/03/21 05:18:35;;;;;;;;;;;;;;;0.07;40.37;102175.28;4415811;32;35027;-79
2022/03/21 05:21:03;;;;;;;5.90;2.42;;;;;;;0.13;40.58;102176.94;4414831;32;34659;-79
2022/03/21 05:31:51;;;;;;;6.43;2.87;;;;;;;0.31;40.58;102187.16;4416658;32;34161;-79
2022/03/21 05:37:05;;;;;;;8.10;3.17;;;;;;;0.08;40.75;102187.47;4417089;32;34935;-79
2022/03/21 05:39:33;;;;;;;5.62;3.72;;;;;;;0.25;40.70;102189.84;4415314;32;35001;-78
2022/03/21 05:42:01;;;;;;;5.07;2.90;;;;;;;0.71;39.63;102190.88;4429615;32;34482;-78
2022/03/21 05:44:28;;;;;;;31.67;3.55;;;;;;;0.67;40.21;102202.31;4429385;32;33713;-81
2022/03/21 05:46:56;;;;;;;8.43;4.43;;;;;;;0.62;40.25;102202.38;4402334;32;32984;-81
2022/03/21 05:49:24;;;;;;;3.70;3.08;;;;;;;0.61;40.61;102207.62;4401669;32;35754;-79
2022/03/21 05:51:54;;;;;;;6.05;2.97;;;;;;;0.81;40.67;102200.31;4414860;32;33499;-82
2022/03/21 05:54:24;;;;;;;4.30;3.05;;;;;;;0.77;40.85;102196.03;4415202;32;33630;-87
2022/03/21 05:56:51;;;;;;;4.95;3.70;;;;;;;1.07;40.29;102195.50;4413595;32;34529;-82
2022/03/21 06:02:05;;;;;;;9.65;5.70;;;;;;;1.30;40.32;102201.16;4414999;32;32618;-78
2022/03/21 06:04:33;;;;;;;11.75;6.97;;;;;;;1.41;40.26;102196.63;4390489;32;31504;-78
2022/03/21 06:07:00;;;;;;;4.62;3.87;;;;;;;1.33;40.92;102194.12;4404936;32;33702;-79
2022/03/21 06:09:32;;;;;;;6.37;3.78;;;;;;;1.50;40.32;102197.28;4426492;32;35233;-78
2022/03/21 06:12:00;;;;;;;6.80;4.25;;;;;;;1.65;40.10;102197.00;4415296;32;34151;-80
2022/03/21 06:14:27;;;;;;;14.50;3.87;;;;;;;1.99;39.71;102199.78;4400451;32;33848;-79
2022/03/21 06:16:55;;;;;;;6.10;3.30;;;;;;;2.11;40.02;102196.91;4428742;32;34612;-78
2022/03/21 06:19:23;;;;;;;5.47;4.15;;;;;;;2.19;40.08;102193.22;4401682;32;33201;-78
2022/03/21 06:21:50;;;;;;;7.07;4.53;;;;;;;2.34;39.90;102203.37;4414758;32;34906;-79
2022/03/21 06:24:18;;;;;;;5.57;3.42;;;;;;;2.59;39.63;102193.16;4428026;32;32733;-78
2022/03/21 06:26:46;;;;;;;5.03;3.62;;;;;;;2.50;40.62;102199.50;4414710;32;32440;-79
2022/03/21 06:29:13;;;;;;;6.97;4.15;;;;;;;2.77;40.27;102197.06;4428779;32;34651;-78
2022/03/21 06:31:41;;;;;;;8.82;4.30;;;;;;;3.00;39.73;102197.38;4415005;32;34415;-78
2022/03/21 06:34:08;;;;;;;11.65;4.50;;;;;;;3.05;39.78;102207.78;4414984;32;33400;-78
2022/03/21 06:36:36;;;;;;;5.00;4.43;;;;;;;3.31;38.71;102200.06;4414581;32;33442;-78
2022/03/21 06:39:05;;;;;;;4.65;4.05;;;;;;;3.52;38.57;102195.06;4402332;32;35225;-78
2022/03/21 06:41:32;;;;;;;5.78;3.55;;;;;;;3.72;38.36;102195.41;4414712;32;33436;-79
2022/03/21 06:44:00;;;;;;;10.13;5.03;;;;;;;3.80;37.06;102200.44;4402338;32;32906;-80
2022/03/21 06:46:28;;;;;;;4.53;3.92;;;;;;;4.22;34.98;102194.78;4429051;32;34234;-79
2022/03/21 06:48:55;;;;;;;9.05;6.03;;;;;;;4.49;34.54;102196.56;4413026;32;34852;-79
2022/03/21 06:51:26;;;;;;;5.18;4.68;;;;;;;4.68;33.75;102202.09;4412848;32;35009;-79
2022/03/21 06:53:54;;;;;;;;;;;;;;;4.89;33.63;102197.00;4400917;32;33562;-80
2022/03/21 06:56:21;;;;;;;9.77;4.53;;;;;;;5.13;33.32;102198.81;4428684;32;34760;-80
2022/03/21 06:58:49;;;;;;;5.60;4.70;;;;;;;5.24;33.61;102201.94;4401939;32;34823;-80
2022/03/21 07:01:16;;;;;;;4.03;3.62;;;;;;;5.64;31.87;102202.25;4402173;32;34814;-80
2022/03/21 07:03:44;;;;;;;12.10;6.37;;;;;;;5.88;31.74;102196.13;4414665;32;32937;-81
2022/03/21 07:06:12;;;;;;;7.45;3.97;;;;;;;6.20;31.27;102199.28;4414869;32;33667;-81
2022/03/21 07:08:40;;;;;;;8.30;5.47;;;;;;;6.14;30.83;102193.38;4414483;32;36017;-80
2022/03/21 07:11:12;;;;;;;6.00;4.70;;;;;;;6.16;31.39;102202.09;4401418;32;34313;-80
2022/03/21 07:13:40;;;;;;;6.57;4.68;;;;;;;6.17;30.85;102204.66;4428315;32;34212;-81
2022/03/21 07:16:09;;;;;;;7.68;4.20;;;;;;;6.76;29.61;102204.97;4428447;32;33511;-80
2022/03/21 07:18:37;;;;;;;6.45;4.95;;;;;;;7.00;28.73;102198.69;4428272;32;35030;-81
2022/03/21 07:21:05;;;;;;;6.62;4.60;;;;;;;7.00;29.37;102204.81;4427975;32;34635;-82
2022/03/21 07:23:32;;;;;;;6.93;5.40;;;;;;;7.24;28.39;102202.94;4428768;32;33709;-82
2022/03/21 07:26:02;;;;;;;6.70;4.47;;;;;;;7.20;28.18;102202.22;4427274;32;34097;-82
2022/03/21 07:28:29;;;;;;;9.68;7.15;;;;;;;7.47;28.15;102208.12;4416189;32;35058;-81
2022/03/21 07:31:17;;;;;;;7.22;6.32;;;;;;;7.84;27.85;102205.56;4418753;32;34547;-82
2022/03/21 07:33:45;;;;;;;7.93;5.03;;;;;;;7.87;27.41;102202.78;4416364;32;34072;-80
2022/03/21 07:36:12;;;;;;;7.68;4.97;;;;;;;8.00;26.77;102202.16;4430150;32;33070;-81
2022/03/21 07:38:40;;;;;;;9.68;5.50;;;;;;;7.74;26.62;102202.44;4428305;32;35599;-80
2022/03/21 07:41:08;;;;;;;6.53;5.10;;;;;;;7.64;26.74;102200.28;4429640;32;33834;-80
2022/03/21 07:43:36;;;;;;;7.07;6.25;;;;;;;7.73;26.85;102205.19;4430130;32;33238;-79
2022/03/21 07:48:51;;;;;;;8.85;5.18;;;;;;;7.78;26.66;102212.00;4429825;32;34907;-80
2022/03/21 07:51:19;;;;;;;7.35;5.35;;;;;;;7.71;27.99;102212.31;4416294;32;34136;-81
2022/03/21 07:53:46;;;;;;;4.78;3.95;;;;;;;7.98;26.23;102211.09;4415677;32;33588;-81
2022/03/21 07:56:17;;;;;;;7.28;5.70;;;;;;;7.93;26.52;102216.59;4416530;32;34583;-81
2022/03/21 07:58:45;;;;;;;8.35;5.75;;;;;;;7.99;26.22;102208.38;4403077;32;33434;-81
2022/03/21 08:01:12;;;;;;;5.68;5.15;;;;;;;7.75;27.02;102211.28;4415985;32;34220;-82
2022/03/21 08:03:40;;;;;;;6.22;4.93;;;;;;;8.23;27.65;102214.38;4416123;32;33459;-84
2022/03/21 08:06:10;;;;;;;6.93;5.45;;;;;;;8.48;26.17;102214.97;4399353;32;34127;-81
2022/03/21 08:08:38;;;;;;;9.45;4.03;;;;;;;8.85;25.09;102208.66;4415658;32;32662;-81
2022/03/21 08:11:06;;;;;;;6.72;4.87;;;;;;;8.84;25.31;102209.59;4415791;32;33967;-85
2022/03/21 08:13:33;;;;;;;4.85;4.45;;;;;;;8.91;25.44;102208.34;4429945;32;33958;-80
2022/03/21 08:16:02;;;;;;;4.95;3.60;;;;;;;8.89;25.21;102214.69;4416151;32;34043;-84
2022/03/21 08:18:33;;;;;;;5.95;5.22;;;;;;;8.54;26.65;102208.41;4403872;32;34057;-84
2022/03/21 08:21:00;;;;;;;5.75;4.53;;;;;;;9.03;25.35;102205.09;4415825;32;33941;-82
2022/03/21 08:23:28;;;;;;;6.68;4.37;;;;;;;8.82;25.31;102206.13;4415529;32;33385;-81
2022/03/21 08:25:57;;;;;;;5.07;3.62;;;;;;;9.20;25.27;102204.25;4412917;32;33517;-84
2022/03/21 08:28:25;;;;;;;5.93;4.50;;;;;;;9.21;24.83;102204.19;4400089;32;34479;-81
2022/03/21 08:30:53;;;;;;;5.68;4.85;;;;;;;9.03;25.06;102204.22;4413624;32;33837;-85
2022/03/21 08:33:21;;;;;;;;;;;;;;;9.13;25.86;102208.12;4400986;32;33439;-80
2022/03/21 08:35:48;;;;;;;6.00;4.65;;;;;;;9.76;24.74;102196.84;4400533;32;32519;-80
2022/03/21 08:38:16;;;;;;;5.72;4.62;;;;;;;9.86;24.54;102198.97;4413673;32;34656;-83
2022/03/21 08:40:44;;;;;;;6.10;5.60;;;;;;;9.94;24.13;102188.75;4412735;32;34653;-80
2022/03/21 08:43:11;;;;;;;10.43;5.93;;;;;;;10.03;24.09;102187.44;4412992;32;32860;-82
2022/03/21 08:45:40;;;;;;;7.78;5.85;;;;;;;10.02;24.42;102191.88;4413154;32;33879;-81
2022/03/21 08:48:08;;;;;;;6.40;5.82;;;;;;;10.20;23.88;102190.88;4412826;32;35485;-81
2022/03/21 08:50:37;;;;;;;5.75;5.18;;;;;;;10.49;23.20;102183.97;4413227;32;34299;-81
2022/03/21 08:53:05;;;;;;;18.20;6.32;;;;;;;10.12;23.86;102189.59;4412443;32;33358;-81
2022/03/21 08:55:33;;;;;;;6.55;5.90;;;;;;;10.27;23.41;102178.97;4412727;32;33263;-81
2022/03/21 08:58:00;;;;;;;4.25;3.85;;;;;;;10.20;23.91;102182.91;4414654;32;35602;-82
2022/03/21 09:00:28;;;;;;;18.98;5.43;;;;;;;10.62;23.96;102179.66;4387914;32;34495;-84
2022/03/21 09:02:55;;;;;;;8.60;6.40;;;;;;;10.45;23.52;102175.28;4400310;32;34069;-80
2022/03/21 09:05:24;;;;;;;5.62;5.12;;;;;;;10.30;23.31;102178.78;4411737;32;34666;-81
2022/03/21 09:07:51;;;;;;;;;;;;;;;10.69;23.58;102171.25;4388238;32;32674;-82
2022/03/21 09:10:19;;;;;;;6.28;5.78;;;;;;;10.60;23.26;102173.56;4412960;32;34840;-81
2022/03/21 09:12:48;;;;;;;6.60;5.45;;;;;;;10.56;23.78;102172.03;4413163;32;34209;-84
2022/03/21 09:15:15;;;;;;;6.65;6.03;;;;;;;10.50;23.37;102164.38;4412800;32;33625;-82
2022/03/21 09:17:44;;;;;;;7.78;4.72;;;;;;;10.88;23.82;102174.56;4412607;32;34928;-82
2022/03/21 09:20:13;;;;;;;10.00;6.87;;;;;;;11.01;23.30;102162.25;4398548;32;34868;-84
2022/03/21 09:22:41;;;;;;;8.27;7.15;;;;;;;11.00;23.05;102164.97;4399622;32;33271;-82
2022/03/21 09:25:09;;;;;;;5.78;5.25;;;;;;;11.28;22.81;102157.94;4411721;32;34799;-80
2022/03/21 09:27:38;;;;;;;7.10;5.18;;;;;;;11.13;23.18;102153.53;4399119;32;35144;-81
2022/03/21 09:30:07;;;;;;;9.98;5.35;;;;;;;11.01;22.84;102154.25;4411983;32;34354;-80
2022/03/21 09:32:34;;;;;;;9.65;5.65;;;;;;;10.89;23.03;102151.44;4414266;32;33859;-80
2022/03/21 09:35:03;;;;;;;3.15;2.95;;;;;;;11.32;22.68;102147.97;4414360;32;33902;-83
2022/03/21 09:37:32;;;;;;;5.00;4.50;;;;;;;11.21;22.42;102151.25;4412395;32;36270;-82
2022/03/21 09:40:00;;;;;;;6.00;5.32;;;;;;;11.51;21.81;102152.06;4414209;32;33871;-81
2022/03/21 09:42:28;;;;;;;6.95;6.03;;;;;;;11.35;22.13;102146.81;4412704;32;33017;-81
2022/03/21 09:44:55;;;;;;;7.00;5.70;;;;;;;11.48;22.13;102149.59;4412699;32;33697;-82
2022/03/21 09:50:13;;;;;;;7.15;3.75;;;;;;;11.66;21.59;102137.84;4411684;32;34136;-82
2022/03/21 09:52:42;;;;;;;4.25;3.55;;;;;;;11.94;20.90;102149.38;4413027;32;32859;-82
2022/03/21 09:55:09;;;;;;;21.80;4.85;;;;;;;12.06;20.79;102151.28;4412304;32;34738;-80
2022/03/21 09:57:37;;;;;;;7.53;5.07;;;;;;;12.22;21.09;102141.34;4399777;32;34636;-83
2022/03/21 10:00:06;;;;;;;5.37;4.00;;;;;;;12.23;20.58;102137.72;4412498;32;34507;-82
2022/03/21 10:02:38;;;;;;;4.90;4.32;;;;;;;12.19;20.62;102146.03;4412931;32;32682;-83
2022/03/21 10:05:06;;;;;;;4.30;3.60;;;;;;;12.40;20.25;102140.12;4400382;32;33317;-84
2022/03/21 10:07:34;;;;;;;5.43;4.25;;;;;;;12.04;20.92;102142.50;4412651;32;35288;-80
2022/03/21 10:10:04;;;;;;;3.47;3.25;;;;;;;12.33;20.01;102130.84;4414038;32;34338;-81
2022/03/21 10:12:36;;;;;;;6.12;4.75;;;;;;;12.73;19.97;102129.94;4412509;32;31507;-79
2022/03/21 10:15:07;;;;;;;5.45;4.95;;;;;;;12.77;19.27;102125.25;4414081;32;34342;-81
2022/03/21 10:17:34;;;;;;;5.60;4.22;;;;;;;12.33;19.57;102128.16;4400266;32;34669;-80
2022/03/21 10:20:03;;;;;;;5.53;5.07;;;;;;;12.78;19.67;102127.81;4412633;32;33935;-82
2022/03/21 10:22:37;;;;;;;5.07;4.55;;;;;;;12.89;21.11;102119.06;4399677;32;33641;-80
2022/03/21 10:25:10;;;;;;;4.85;3.72;;;;;;;13.18;19.07;102107.28;4412621;32;33661;-80
2022/03/21 10:27:43;;;;;;;5.37;4.87;;;;;;;13.20;19.28;102110.75;4412215;32;35060;-80
2022/03/21 10:30:22;;;;;;;4.97;4.57;;;;;;;13.15;20.00;102107.50;4414118;32;33827;-83
2022/03/21 10:32:58;;;;;;;3.83;3.53;;;;;;;13.46;19.71;102109.78;4399636;32;33360;-81
2022/03/21 10:35:28;;;;;;;7.80;5.37;;;;;;;13.68;18.95;102105.50;4412445;32;33595;-80
2022/03/21 10:38:00;;;;;;;4.90;4.60;;;;;;;13.55;19.50;102106.47;4412366;32;35108;-81
2022/03/21 10:40:44;;;;;;;4.95;4.53;;;;;;;13.43;19.26;102100.16;4412584;32;35020;-82
2022/03/21 10:43:16;;;;;;;6.55;4.60;;;;;;;13.56;18.59;102093.00;4412339;32;32998;-82
2022/03/21 10:45:50;;;;;;;5.43;5.03;;;;;;;13.65;18.96;102084.31;4399563;32;34227;-81
2022/03/21 10:48:29;;;;;;;5.62;5.12;;;;;;;13.72;18.66;102085.59;4413651;32;35834;-81
2022/03/21 10:50:59;;;;;;;12.75;5.07;;;;;;;13.77;17.92;102077.25;4414077;32;34657;-80
2022/03/21 10:53:28;;;;;;;5.93;5.37;;;;;;;13.12;18.93;102081.84;4399806;32;31575;-81
2022/03/21 10:56:00;;;;;;;5.32;4.82;;;;;;;13.65;19.21;102078.97;4399665;32;31844;-81
2022/03/21 10:58:49;;;;;;;5.37;4.97;;;;;;;14.31;18.25;102075.94;4413278;32;35323;-81
2022/03/21 11:01:18;;;;;;;5.93;5.20;;;;;;;14.74;17.33;102069.97;4411909;32;35407;-81
2022/03/21 11:03:51;;;;;;;4.12;3.83;;;;;;;14.63;17.85;102070.75;4413671;32;33641;-80
2022/03/21 11:06:19;;;;;;;19.10;4.25;;;;;;;14.38;19.17;102070.87;4413204;32;34433;-81
2022/03/21 11:08:50;;;;;;;3.62;3.35;;;;;;;14.81;17.25;102066.69;4409200;32;88084;-80
2022/03/21 11:11:18;;;;;;;4.93;4.50;;;;;;;14.47;17.46;102056.78;4413241;32;34032;-82
2022/03/21 11:13:47;;;;;;;4.43;4.03;;;;;;;14.51;17.78;102066.31;4411897;32;33018;-81
2022/03/21 11:16:18;;;;;;;6.60;4.78;;;;;;;15.02;18.84;102053.47;4399272;32;33622;-85
2022/03/21 11:18:48;;;;;;;5.05;4.65;;;;;;;15.50;17.52;102047.00;4410736;32;34985;-82
2022/03/21 11:21:18;;;;;;;4.28;3.97;;;;;;;15.59;16.96;102044.41;4399158;32;34123;-87
2022/03/21 11:23:47;;;;;;;4.50;4.12;;;;;;;15.22;16.73;102034.84;4414370;32;33093;-81
2022/03/21 11:26:28;;;;;;;7.65;4.97;;;;;;;15.04;16.45;102030.06;4402241;32;35193;-82
2022/03/21 11:29:16;;;;;;;4.72;4.32;;;;;;;14.81;16.47;102030.97;4429718;32;34789;-81
2022/03/21 11:31:56;;;;;;;4.07;3.78;;;;;;;14.68;17.52;102032.91;4414942;32;34621;-82
2022/03/21 11:34:56;;;;;;;3.17;2.87;;;;;;;14.71;16.99;102030.84;4413632;32;33145;-82
2022/03/21 11:37:25;;;;;;;3.42;3.12;;;;;;;14.97;17.26;102027.03;4414839;32;31856;-83
2022/03/21 11:40:30;;;;;;;3.53;2.85;;;;;;;15.19;16.84;102020.81;4415775;32;35068;-81
2022/03/21 11:43:30;;;;;;;4.65;4.03;;;;;;;15.36;16.22;102025.75;4325501;32;35149;-82
2022/03/21 11:46:22;;;;;;;3.58;3.28;;;;;;;15.30;16.75;102023.53;4325635;32;32351;-83
2022/03/21 11:48:50;;;;;;;6.05;5.10;;;;;;;14.91;17.05;102014.09;4337324;32;34200;-81
2022/03/21 11:51:18;;;;;;;;;;;;;;;15.46;17.26;102016.00;4337797;32;33239;-87
2022/03/21 11:53:49;;;;;;;6.03;4.62;;;;;;;15.60;15.68;102002.34;4337299;32;34310;-85
2022/03/21 11:56:18;;;;;;;4.18;3.78;;;;;;;15.09;17.19;102014.47;4325203;32;32376;-81
2022/03/21 11:58:46;;;;;;;8.18;5.12;;;;;;;15.22;16.14;102004.50;4337517;32;33872;-80
2022/03/21 12:01:19;;;;;;;5.28;4.28;;;;;;;14.92;16.50;102006.91;4350073;32;33944;-81
2022/03/21 12:03:47;;;;;;;4.80;4.25;;;;;;;15.27;16.00;101989.78;4349788;32;34526;-82
2022/03/21 12:06:24;;;;;;;3.75;3.50;;;;;;;15.35;16.44;101999.91;4337711;32;33708;-83